sensor_id;sensor_type;location;lat;lon;timestamp;P1;durP1;ratioP1;P2;durP2;ratioP2
75739;SDS011;64357;51.344;6.550;2023-07-29T00:00:49;6.40;;;2.13;;
75739;SDS011;64357;51.344;6.550;2023-07-29T00:03:15;4.78;;;2.17;;
75739;SDS011;64357;51.344;6.550;2023-07-29T00:05:40;9.13;;;2.00;;
75739;SDS011;64357;51.344;6.550;2023-07-29T00:08:08;4.63;;;1.75;;
75739;SDS011;64357;51.344;6.550;2023-07-29T00:10:35;4.33;;;1.93;;
75739;SDS011;64357;51.344;6.550;2023-07-29T00:13:02;5.25;;;2.10;;
75739;SDS011;64357;51.344;6.550;2023-07-29T00:15:28;4.35;;;2.00;;
75739;SDS011;64357;51.344;6.550;2023-07-29T00:17:53;5.60;;;1.80;;
75739;SDS011;64357;51.344;6.550;2023-07-29T00:20:18;5.80;;;2.10;;
75739;SDS011;64357;51.344;6.550;2023-07-29T00:22:44;5.03;;;2.00;;
75739;SDS011;64357;51.344;6.550;2023-07-29T00:25:11;6.10;;;1.90;;
75739;SDS011;64357;51.344;6.550;2023-07-29T00:27:37;4.90;;;2.27;;
75739;SDS011;64357;51.344;6.550;2023-07-29T00:30:02;4.13;;;2.00;;
75739;SDS011;64357;51.344;6.550;2023-07-29T00:32:29;4.50;;;1.67;;
75739;SDS011;64357;51.344;6.550;2023-07-29T00:34:54;4.90;;;2.00;;
75739;SDS011;64357;51.344;6.550;2023-07-29T00:37:20;6.93;;;2.03;;
75739;SDS011;64357;51.344;6.550;2023-07-29T00:39:46;5.72;;;1.88;;
75739;SDS011;64357;51.344;6.550;2023-07-29T00:42:14;4.97;;;2.10;;
75739;SDS011;64357;51.344;6.550;2023-07-29T00:44:42;5.53;;;1.80;;
75739;SDS011;64357;51.344;6.550;2023-07-29T00:47:07;3.50;;;1.80;;
75739;SDS011;64357;51.344;6.550;2023-07-29T00:49:35;3.58;;;1.75;;
75739;SDS011;64357;51.344;6.550;2023-07-29T00:52:02;5.07;;;2.30;;
75739;SDS011;64357;51.344;6.550;2023-07-29T00:54:28;3.72;;;1.85;;
75739;SDS011;64357;51.344;6.550;2023-07-29T00:56:53;3.70;;;1.73;;
75739;SDS011;64357;51.344;6.550;2023-07-29T00:59:19;5.30;;;2.08;;
75739;SDS011;64357;51.344;6.550;2023-07-29T01:01:44;4.28;;;1.92;;
75739;SDS011;64357;51.344;6.550;2023-07-29T01:04:10;4.47;;;2.00;;
75739;SDS011;64357;51.344;6.550;2023-07-29T01:09:31;3.85;;;2.05;;
75739;SDS011;64357;51.344;6.550;2023-07-29T01:12:17;6.85;;;2.40;;
75739;SDS011;64357;51.344;6.550;2023-07-29T01:14:50;5.13;;;2.00;;
75739;SDS011;64357;51.344;6.550;2023-07-29T01:17:32;4.40;;;1.98;;
75739;SDS011;64357;51.344;6.550;2023-07-29T01:20:02;4.20;;;1.98;;
75739;SDS011;64357;51.344;6.550;2023-07-29T01:22:35;5.55;;;2.00;;
75739;SDS011;64357;51.344;6.550;2023-07-29T01:25:02;5.38;;;2.33;;
75739;SDS011;64357;51.344;6.550;2023-07-29T01:27:27;6.88;;;2.33;;
75739;SDS011;64357;51.344;6.550;2023-07-29T01:29:56;5.97;;;2.22;;
75739;SDS011;64357;51.344;6.550;2023-07-29T01:38:13;4.28;;;2.03;;
75739;SDS011;64357;51.344;6.550;2023-07-29T01:40:43;6.20;;;2.20;;
75739;SDS011;64357;51.344;6.550;2023-07-29T01:43:12;4.75;;;1.90;;
75739;SDS011;64357;51.344;6.550;2023-07-29T01:45:38;5.03;;;2.17;;
75739;SDS011;64357;51.344;6.550;2023-07-29T01:48:05;4.45;;;1.92;;
75739;SDS011;64357;51.344;6.550;2023-07-29T01:50:31;4.70;;;2.30;;
75739;SDS011;64357;51.344;6.550;2023-07-29T01:52:59;6.28;;;2.10;;
75739;SDS011;64357;51.344;6.550;2023-07-29T01:55:25;5.25;;;2.03;;
75739;SDS011;64357;51.344;6.550;2023-07-29T01:57:52;5.28;;;2.30;;
75739;SDS011;64357;51.344;6.550;2023-07-29T02:00:20;7.30;;;2.42;;
75739;SDS011;64357;51.344;6.550;2023-07-29T02:02:46;6.20;;;2.38;;
75739;SDS011;64357;51.344;6.550;2023-07-29T02:05:11;4.63;;;2.30;;
75739;SDS011;64357;51.344;6.550;2023-07-29T02:07:37;5.07;;;2.25;;
75739;SDS011;64357;51.344;6.550;2023-07-29T02:10:04;4.78;;;2.28;;
75739;SDS011;64357;51.344;6.550;2023-07-29T02:12:30;5.30;;;2.40;;
75739;SDS011;64357;51.344;6.550;2023-07-29T02:14:58;4.68;;;2.38;;
75739;SDS011;64357;51.344;6.550;2023-07-29T02:17:25;6.55;;;2.30;;
75739;SDS011;64357;51.344;6.550;2023-07-29T02:19:51;5.20;;;2.72;;
75739;SDS011;64357;51.344;6.550;2023-07-29T02:22:17;6.78;;;2.42;;
75739;SDS011;64357;51.344;6.550;2023-07-29T02:24:42;6.03;;;2.63;;
75739;SDS011;64357;51.344;6.550;2023-07-29T02:27:11;5.93;;;2.90;;
75739;SDS011;64357;51.344;6.550;2023-07-29T02:29:37;5.97;;;2.38;;
75739;SDS011;64357;51.344;6.550;2023-07-29T02:32:02;4.82;;;2.60;;
75739;SDS011;64357;51.344;6.550;2023-07-29T02:34:28;6.10;;;2.55;;
75739;SDS011;64357;51.344;6.550;2023-07-29T02:36:57;6.07;;;2.50;;
75739;SDS011;64357;51.344;6.550;2023-07-29T02:39:23;11.00;;;2.30;;
75739;SDS011;64357;51.344;6.550;2023-07-29T02:41:53;5.00;;;2.40;;
75739;SDS011;64357;51.344;6.550;2023-07-29T02:44:20;6.00;;;2.40;;
75739;SDS011;64357;51.344;6.550;2023-07-29T02:46:45;7.75;;;2.88;;
75739;SDS011;64357;51.344;6.550;2023-07-29T02:49:11;4.60;;;2.40;;
75739;SDS011;64357;51.344;6.550;2023-07-29T02:51:36;4.60;;;2.30;;
75739;SDS011;64357;51.344;6.550;2023-07-29T02:54:01;6.17;;;2.50;;
75739;SDS011;64357;51.344;6.550;2023-07-29T02:56:29;5.10;;;2.45;;
75739;SDS011;64357;51.344;6.550;2023-07-29T02:58:55;5.60;;;2.53;;
75739;SDS011;64357;51.344;6.550;2023-07-29T03:01:21;6.20;;;2.80;;
75739;SDS011;64357;51.344;6.550;2023-07-29T03:03:49;4.25;;;2.20;;
75739;SDS011;64357;51.344;6.550;2023-07-29T03:06:15;7.67;;;2.53;;
75739;SDS011;64357;51.344;6.550;2023-07-29T03:08:40;6.18;;;2.75;;
75739;SDS011;64357;51.344;6.550;2023-07-29T03:11:07;4.90;;;2.38;;
75739;SDS011;64357;51.344;6.550;2023-07-29T03:13:33;5.13;;;2.47;;
75739;SDS011;64357;51.344;6.550;2023-07-29T03:16:08;6.73;;;2.73;;
75739;SDS011;64357;51.344;6.550;2023-07-29T03:18:38;6.70;;;2.60;;
75739;SDS011;64357;51.344;6.550;2023-07-29T03:21:03;6.07;;;2.83;;
75739;SDS011;64357;51.344;6.550;2023-07-29T03:23:29;5.70;;;2.35;;
75739;SDS011;64357;51.344;6.550;2023-07-29T03:25:56;6.05;;;2.90;;
75739;SDS011;64357;51.344;6.550;2023-07-29T03:28:26;6.90;;;2.95;;
75739;SDS011;64357;51.344;6.550;2023-07-29T03:30:56;6.47;;;2.92;;
75739;SDS011;64357;51.344;6.550;2023-07-29T03:33:21;6.53;;;3.10;;
75739;SDS011;64357;51.344;6.550;2023-07-29T03:35:49;5.68;;;3.08;;
75739;SDS011;64357;51.344;6.550;2023-07-29T03:38:18;5.85;;;2.90;;
75739;SDS011;64357;51.344;6.550;2023-07-29T03:40:43;6.20;;;2.53;;
75739;SDS011;64357;51.344;6.550;2023-07-29T03:43:09;6.32;;;2.70;;
75739;SDS011;64357;51.344;6.550;2023-07-29T03:45:35;5.72;;;2.65;;
75739;SDS011;64357;51.344;6.550;2023-07-29T03:48:00;5.60;;;2.70;;
75739;SDS011;64357;51.344;6.550;2023-07-29T03:50:28;5.85;;;2.80;;
75739;SDS011;64357;51.344;6.550;2023-07-29T03:52:54;6.50;;;2.70;;
75739;SDS011;64357;51.344;6.550;2023-07-29T03:55:20;5.93;;;2.72;;
75739;SDS011;64357;51.344;6.550;2023-07-29T03:57:46;4.85;;;2.72;;
75739;SDS011;64357;51.344;6.550;2023-07-29T04:00:11;6.45;;;2.83;;
75739;SDS011;64357;51.344;6.550;2023-07-29T04:02:40;5.38;;;2.80;;
75739;SDS011;64357;51.344;6.550;2023-07-29T04:05:10;6.65;;;3.03;;
75739;SDS011;64357;51.344;6.550;2023-07-29T04:07:38;7.03;;;3.20;;
75739;SDS011;64357;51.344;6.550;2023-07-29T04:10:06;17.33;;;9.52;;
75739;SDS011;64357;51.344;6.550;2023-07-29T04:12:32;6.78;;;3.30;;
75739;SDS011;64357;51.344;6.550;2023-07-29T04:14:58;7.32;;;3.03;;
75739;SDS011;64357;51.344;6.550;2023-07-29T04:17:25;8.02;;;3.20;;
75739;SDS011;64357;51.344;6.550;2023-07-29T04:19:53;6.15;;;2.95;;
75739;SDS011;64357;51.344;6.550;2023-07-29T04:22:18;8.83;;;3.50;;
75739;SDS011;64357;51.344;6.550;2023-07-29T04:24:43;6.93;;;3.20;;
75739;SDS011;64357;51.344;6.550;2023-07-29T04:27:11;6.60;;;2.92;;
75739;SDS011;64357;51.344;6.550;2023-07-29T04:29:37;6.32;;;2.70;;
75739;SDS011;64357;51.344;6.550;2023-07-29T04:32:05;7.88;;;2.80;;
75739;SDS011;64357;51.344;6.550;2023-07-29T04:34:30;6.18;;;2.85;;
75739;SDS011;64357;51.344;6.550;2023-07-29T04:36:56;5.38;;;2.30;;
75739;SDS011;64357;51.344;6.550;2023-07-29T04:39:22;7.18;;;2.80;;
75739;SDS011;64357;51.344;6.550;2023-07-29T04:41:47;6.80;;;2.90;;
75739;SDS011;64357;51.344;6.550;2023-07-29T04:44:13;5.28;;;1.95;;
75739;SDS011;64357;51.344;6.550;2023-07-29T04:46:38;4.87;;;2.10;;
75739;SDS011;64357;51.344;6.550;2023-07-29T04:49:03;4.80;;;2.03;;
75739;SDS011;64357;51.344;6.550;2023-07-29T04:51:29;5.05;;;2.20;;
75739;SDS011;64357;51.344;6.550;2023-07-29T04:53:57;5.35;;;2.35;;
75739;SDS011;64357;51.344;6.550;2023-07-29T04:56:23;6.30;;;2.50;;
75739;SDS011;64357;51.344;6.550;2023-07-29T04:58:48;6.15;;;2.67;;
75739;SDS011;64357;51.344;6.550;2023-07-29T05:01:13;4.77;;;2.30;;
75739;SDS011;64357;51.344;6.550;2023-07-29T05:03:39;6.43;;;2.50;;
75739;SDS011;64357;51.344;6.550;2023-07-29T05:06:06;6.00;;;2.17;;
75739;SDS011;64357;51.344;6.550;2023-07-29T05:08:32;6.20;;;2.47;;
75739;SDS011;64357;51.344;6.550;2023-07-29T05:10:57;5.33;;;2.10;;
75739;SDS011;64357;51.344;6.550;2023-07-29T05:13:23;5.18;;;1.77;;
75739;SDS011;64357;51.344;6.550;2023-07-29T05:15:48;5.45;;;1.77;;
75739;SDS011;64357;51.344;6.550;2023-07-29T05:18:17;5.38;;;1.98;;
75739;SDS011;64357;51.344;6.550;2023-07-29T05:20:43;4.90;;;1.88;;
75739;SDS011;64357;51.344;6.550;2023-07-29T05:23:08;4.60;;;1.95;;
75739;SDS011;64357;51.344;6.550;2023-07-29T05:25:33;5.10;;;1.92;;
75739;SDS011;64357;51.344;6.550;2023-07-29T05:28:02;9.98;;;2.13;;
75739;SDS011;64357;51.344;6.550;2023-07-29T05:30:28;5.38;;;2.00;;
75739;SDS011;64357;51.344;6.550;2023-07-29T05:33:05;5.45;;;2.10;;
75739;SDS011;64357;51.344;6.550;2023-07-29T05:35:33;6.65;;;2.08;;
75739;SDS011;64357;51.344;6.550;2023-07-29T05:37:58;5.80;;;2.33;;
75739;SDS011;64357;51.344;6.550;2023-07-29T05:40:24;5.27;;;2.13;;
75739;SDS011;64357;51.344;6.550;2023-07-29T05:42:49;6.37;;;2.60;;
75739;SDS011;64357;51.344;6.550;2023-07-29T05:45:16;6.45;;;2.00;;
75739;SDS011;64357;51.344;6.550;2023-07-29T05:47:42;6.93;;;2.23;;
75739;SDS011;64357;51.344;6.550;2023-07-29T05:50:07;3.67;;;1.45;;
75739;SDS011;64357;51.344;6.550;2023-07-29T05:52:33;5.20;;;1.67;;
75739;SDS011;64357;51.344;6.550;2023-07-29T05:54:59;4.82;;;1.70;;
75739;SDS011;64357;51.344;6.550;2023-07-29T05:57:24;7.30;;;2.00;;
75739;SDS011;64357;51.344;6.550;2023-07-29T05:59:50;4.30;;;1.42;;
75739;SDS011;64357;51.344;6.550;2023-07-29T06:02:15;4.38;;;1.75;;
75739;SDS011;64357;51.344;6.550;2023-07-29T06:04:41;3.70;;;1.47;;
75739;SDS011;64357;51.344;6.550;2023-07-29T06:07:07;2.92;;;1.40;;
75739;SDS011;64357;51.344;6.550;2023-07-29T06:09:32;4.80;;;1.42;;
75739;SDS011;64357;51.344;6.550;2023-07-29T06:11:57;3.63;;;1.70;;
75739;SDS011;64357;51.344;6.550;2023-07-29T06:14:23;5.53;;;1.45;;
75739;SDS011;64357;51.344;6.550;2023-07-29T06:16:50;4.00;;;1.35;;
75739;SDS011;64357;51.344;6.550;2023-07-29T06:19:19;3.38;;;1.45;;
75739;SDS011;64357;51.344;6.550;2023-07-29T06:21:45;4.05;;;1.58;;
75739;SDS011;64357;51.344;6.550;2023-07-29T06:24:11;4.75;;;1.55;;
75739;SDS011;64357;51.344;6.550;2023-07-29T06:26:36;3.83;;;1.52;;
75739;SDS011;64357;51.344;6.550;2023-07-29T06:29:04;3.08;;;1.33;;
75739;SDS011;64357;51.344;6.550;2023-07-29T06:31:29;2.88;;;1.30;;
75739;SDS011;64357;51.344;6.550;2023-07-29T06:33:55;3.77;;;1.30;;
75739;SDS011;64357;51.344;6.550;2023-07-29T06:36:20;2.20;;;1.00;;
75739;SDS011;64357;51.344;6.550;2023-07-29T06:38:46;3.67;;;1.20;;
75739;SDS011;64357;51.344;6.550;2023-07-29T06:41:12;2.85;;;1.38;;
75739;SDS011;64357;51.344;6.550;2023-07-29T06:43:37;5.00;;;1.30;;
75739;SDS011;64357;51.344;6.550;2023-07-29T06:46:02;3.03;;;1.13;;
75739;SDS011;64357;51.344;6.550;2023-07-29T06:48:28;3.43;;;1.27;;
75739;SDS011;64357;51.344;6.550;2023-07-29T06:50:55;5.00;;;1.33;;
75739;SDS011;64357;51.344;6.550;2023-07-29T06:53:25;2.25;;;1.00;;
75739;SDS011;64357;51.344;6.550;2023-07-29T06:55:51;1.98;;;0.95;;
75739;SDS011;64357;51.344;6.550;2023-07-29T06:58:19;2.17;;;0.98;;
75739;SDS011;64357;51.344;6.550;2023-07-29T07:00:47;3.03;;;1.13;;
75739;SDS011;64357;51.344;6.550;2023-07-29T07:03:14;6.15;;;1.13;;
75739;SDS011;64357;51.344;6.550;2023-07-29T07:05:42;1.73;;;0.70;;
75739;SDS011;64357;51.344;6.550;2023-07-29T07:08:10;3.25;;;1.00;;
75739;SDS011;64357;51.344;6.550;2023-07-29T07:10:35;3.43;;;0.90;;
75739;SDS011;64357;51.344;6.550;2023-07-29T07:13:00;2.83;;;1.00;;
75739;SDS011;64357;51.344;6.550;2023-07-29T07:15:26;1.83;;;0.83;;
75739;SDS011;64357;51.344;6.550;2023-07-29T07:17:51;3.73;;;0.90;;
75739;SDS011;64357;51.344;6.550;2023-07-29T07:20:19;3.17;;;1.17;;
75739;SDS011;64357;51.344;6.550;2023-07-29T07:22:44;1.97;;;1.00;;
75739;SDS011;64357;51.344;6.550;2023-07-29T07:25:10;2.73;;;1.10;;
75739;SDS011;64357;51.344;6.550;2023-07-29T07:27:42;2.00;;;1.10;;
75739;SDS011;64357;51.344;6.550;2023-07-29T07:30:07;6.82;;;1.27;;
75739;SDS011;64357;51.344;6.550;2023-07-29T07:32:33;2.58;;;0.70;;
75739;SDS011;64357;51.344;6.550;2023-07-29T07:34:58;1.97;;;0.93;;
75739;SDS011;64357;51.344;6.550;2023-07-29T07:37:23;2.88;;;0.65;;
75739;SDS011;64357;51.344;6.550;2023-07-29T07:39:49;2.55;;;1.00;;
75739;SDS011;64357;51.344;6.550;2023-07-29T07:42:14;3.50;;;0.82;;
75739;SDS011;64357;51.344;6.550;2023-07-29T07:44:40;2.23;;;0.90;;
75739;SDS011;64357;51.344;6.550;2023-07-29T07:47:05;1.20;;;0.60;;
75739;SDS011;64357;51.344;6.550;2023-07-29T07:49:30;2.88;;;0.85;;
75739;SDS011;64357;51.344;6.550;2023-07-29T07:51:56;2.83;;;0.80;;
75739;SDS011;64357;51.344;6.550;2023-07-29T07:54:21;2.37;;;0.87;;
75739;SDS011;64357;51.344;6.550;2023-07-29T07:56:46;2.53;;;0.83;;
75739;SDS011;64357;51.344;6.550;2023-07-29T07:59:14;2.03;;;0.90;;
75739;SDS011;64357;51.344;6.550;2023-07-29T08:01:42;2.75;;;0.63;;
75739;SDS011;64357;51.344;6.550;2023-07-29T08:04:07;1.63;;;0.80;;
75739;SDS011;64357;51.344;6.550;2023-07-29T08:06:35;2.10;;;1.10;;
75739;SDS011;64357;51.344;6.550;2023-07-29T08:09:00;1.25;;;0.80;;
75739;SDS011;64357;51.344;6.550;2023-07-29T08:11:26;1.75;;;0.93;;
75739;SDS011;64357;51.344;6.550;2023-07-29T08:13:51;1.55;;;0.80;;
75739;SDS011;64357;51.344;6.550;2023-07-29T08:16:22;2.42;;;1.17;;
75739;SDS011;64357;51.344;6.550;2023-07-29T08:18:50;2.90;;;1.33;;
75739;SDS011;64357;51.344;6.550;2023-07-29T08:21:15;3.70;;;0.90;;
75739;SDS011;64357;51.344;6.550;2023-07-29T08:23:40;2.45;;;0.73;;
75739;SDS011;64357;51.344;6.550;2023-07-29T08:26:06;1.77;;;0.90;;
75739;SDS011;64357;51.344;6.550;2023-07-29T08:28:32;1.70;;;0.73;;
75739;SDS011;64357;51.344;6.550;2023-07-29T08:31:05;1.73;;;1.00;;
75739;SDS011;64357;51.344;6.550;2023-07-29T08:33:31;2.20;;;1.10;;
75739;SDS011;64357;51.344;6.550;2023-07-29T08:35:59;3.80;;;1.05;;
75739;SDS011;64357;51.344;6.550;2023-07-29T08:38:24;1.60;;;0.90;;
75739;SDS011;64357;51.344;6.550;2023-07-29T08:43:38;2.90;;;1.15;;
75739;SDS011;64357;51.344;6.550;2023-07-29T08:46:07;3.05;;;0.93;;
75739;SDS011;64357;51.344;6.550;2023-07-29T08:48:40;1.52;;;0.82;;
75739;SDS011;64357;51.344;6.550;2023-07-29T08:51:10;2.50;;;1.00;;
75739;SDS011;64357;51.344;6.550;2023-07-29T08:53:42;3.22;;;1.00;;
75739;SDS011;64357;51.344;6.550;2023-07-29T08:56:10;1.85;;;0.88;;
75739;SDS011;64357;51.344;6.550;2023-07-29T08:58:35;3.53;;;1.00;;
75739;SDS011;64357;51.344;6.550;2023-07-29T09:01:04;3.28;;;1.25;;
75739;SDS011;64357;51.344;6.550;2023-07-29T09:03:31;2.38;;;0.80;;
75739;SDS011;64357;51.344;6.550;2023-07-29T09:06:01;2.88;;;1.20;;
75739;SDS011;64357;51.344;6.550;2023-07-29T09:08:31;3.92;;;1.05;;
75739;SDS011;64357;51.344;6.550;2023-07-29T09:10:59;2.50;;;0.77;;
75739;SDS011;64357;51.344;6.550;2023-07-29T09:13:27;2.03;;;0.85;;
75739;SDS011;64357;51.344;6.550;2023-07-29T09:15:54;2.03;;;0.90;;
75739;SDS011;64357;51.344;6.550;2023-07-29T09:18:21;5.95;;;1.25;;
75739;SDS011;64357;51.344;6.550;2023-07-29T09:20:48;1.23;;;0.70;;
75739;SDS011;64357;51.344;6.550;2023-07-29T09:23:17;3.15;;;1.00;;
75739;SDS011;64357;51.344;6.550;2023-07-29T09:25:42;2.10;;;1.00;;
75739;SDS011;64357;51.344;6.550;2023-07-29T09:28:14;4.05;;;1.23;;
75739;SDS011;64357;51.344;6.550;2023-07-29T09:30:41;3.67;;;1.27;;
75739;SDS011;64357;51.344;6.550;2023-07-29T09:33:08;2.63;;;1.08;;
75739;SDS011;64357;51.344;6.550;2023-07-29T09:35:34;3.55;;;1.25;;
75739;SDS011;64357;51.344;6.550;2023-07-29T09:38:01;2.92;;;1.73;;
75739;SDS011;64357;51.344;6.550;2023-07-29T09:40:27;3.72;;;1.20;;
75739;SDS011;64357;51.344;6.550;2023-07-29T09:42:59;3.20;;;1.20;;
75739;SDS011;64357;51.344;6.550;2023-07-29T09:45:25;4.20;;;1.50;;
75739;SDS011;64357;51.344;6.550;2023-07-29T09:47:54;3.17;;;1.10;;
75739;SDS011;64357;51.344;6.550;2023-07-29T09:50:24;1.85;;;0.90;;
75739;SDS011;64357;51.344;6.550;2023-07-29T09:52:55;2.53;;;1.00;;
75739;SDS011;64357;51.344;6.550;2023-07-29T09:55:23;2.38;;;1.55;;
75739;SDS011;64357;51.344;6.550;2023-07-29T09:57:59;3.25;;;1.27;;
75739;SDS011;64357;51.344;6.550;2023-07-29T10:00:28;1.42;;;0.82;;
75739;SDS011;64357;51.344;6.550;2023-07-29T10:02:54;3.08;;;1.38;;
75739;SDS011;64357;51.344;6.550;2023-07-29T10:05:21;1.90;;;1.17;;
75739;SDS011;64357;51.344;6.550;2023-07-29T10:07:48;2.47;;;1.08;;
75739;SDS011;64357;51.344;6.550;2023-07-29T10:10:19;2.53;;;1.23;;
75739;SDS011;64357;51.344;6.550;2023-07-29T10:12:45;4.55;;;1.63;;
75739;SDS011;64357;51.344;6.550;2023-07-29T10:15:13;3.00;;;1.40;;
75739;SDS011;64357;51.344;6.550;2023-07-29T10:17:41;2.97;;;1.52;;
75739;SDS011;64357;51.344;6.550;2023-07-29T10:20:10;3.15;;;1.10;;
75739;SDS011;64357;51.344;6.550;2023-07-29T10:22:37;3.78;;;1.00;;
75739;SDS011;64357;51.344;6.550;2023-07-29T10:25:10;3.90;;;1.40;;
75739;SDS011;64357;51.344;6.550;2023-07-29T10:27:43;3.97;;;1.33;;
75739;SDS011;64357;51.344;6.550;2023-07-29T10:30:12;2.47;;;1.00;;
75739;SDS011;64357;51.344;6.550;2023-07-29T10:32:43;3.13;;;1.05;;
75739;SDS011;64357;51.344;6.550;2023-07-29T10:35:11;1.90;;;0.90;;
75739;SDS011;64357;51.344;6.550;2023-07-29T10:37:37;2.85;;;1.27;;
75739;SDS011;64357;51.344;6.550;2023-07-29T10:40:05;2.70;;;1.10;;
75739;SDS011;64357;51.344;6.550;2023-07-29T10:42:32;2.97;;;1.25;;
75739;SDS011;64357;51.344;6.550;2023-07-29T10:44:58;3.50;;;1.20;;
75739;SDS011;64357;51.344;6.550;2023-07-29T10:47:26;2.80;;;1.25;;
75739;SDS011;64357;51.344;6.550;2023-07-29T10:49:54;3.60;;;1.10;;
75739;SDS011;64357;51.344;6.550;2023-07-29T10:55:02;2.33;;;1.00;;
75739;SDS011;64357;51.344;6.550;2023-07-29T10:57:38;4.03;;;1.90;;
75739;SDS011;64357;51.344;6.550;2023-07-29T11:02:32;3.28;;;1.40;;
75739;SDS011;64357;51.344;6.550;2023-07-29T11:05:04;2.38;;;0.90;;
75739;SDS011;64357;51.344;6.550;2023-07-29T11:07:31;2.95;;;1.38;;
75739;SDS011;64357;51.344;6.550;2023-07-29T11:10:08;1.77;;;0.90;;
75739;SDS011;64357;51.344;6.550;2023-07-29T11:17:39;4.43;;;1.23;;
75739;SDS011;64357;51.344;6.550;2023-07-29T11:20:09;3.88;;;1.55;;
75739;SDS011;64357;51.344;6.550;2023-07-29T11:22:38;4.35;;;1.25;;
75739;SDS011;64357;51.344;6.550;2023-07-29T11:25:04;2.58;;;1.20;;
75739;SDS011;64357;51.344;6.550;2023-07-29T11:27:32;1.88;;;1.00;;
75739;SDS011;64357;51.344;6.550;2023-07-29T11:29:58;2.38;;;0.95;;
75739;SDS011;64357;51.344;6.550;2023-07-29T11:32:25;1.92;;;1.00;;
75739;SDS011;64357;51.344;6.550;2023-07-29T11:34:50;3.08;;;1.13;;
75739;SDS011;64357;51.344;6.550;2023-07-29T11:37:16;2.60;;;1.20;;
75739;SDS011;64357;51.344;6.550;2023-07-29T11:39:42;3.78;;;1.30;;
75739;SDS011;64357;51.344;6.550;2023-07-29T11:42:11;2.78;;;1.27;;
75739;SDS011;64357;51.344;6.550;2023-07-29T11:44:38;2.65;;;1.30;;
75739;SDS011;64357;51.344;6.550;2023-07-29T11:47:10;3.47;;;1.10;;
75739;SDS011;64357;51.344;6.550;2023-07-29T11:49:39;3.45;;;1.25;;
75739;SDS011;64357;51.344;6.550;2023-07-29T11:52:10;4.85;;;1.55;;
75739;SDS011;64357;51.344;6.550;2023-07-29T11:54:37;2.92;;;1.20;;
75739;SDS011;64357;51.344;6.550;2023-07-29T11:57:08;2.90;;;1.30;;
75739;SDS011;64357;51.344;6.550;2023-07-29T11:59:39;3.58;;;1.20;;
75739;SDS011;64357;51.344;6.550;2023-07-29T12:02:08;5.85;;;1.40;;
75739;SDS011;64357;51.344;6.550;2023-07-29T12:04:36;3.08;;;1.35;;
75739;SDS011;64357;51.344;6.550;2023-07-29T12:07:03;3.50;;;1.63;;
75739;SDS011;64357;51.344;6.550;2023-07-29T12:09:32;3.63;;;1.33;;
75739;SDS011;64357;51.344;6.550;2023-07-29T12:11:59;2.17;;;1.00;;
75739;SDS011;64357;51.344;6.550;2023-07-29T12:14:30;3.22;;;1.20;;
75739;SDS011;64357;51.344;6.550;2023-07-29T12:16:56;5.03;;;2.55;;
75739;SDS011;64357;51.344;6.550;2023-07-29T12:19:30;1.80;;;1.08;;
75739;SDS011;64357;51.344;6.550;2023-07-29T12:21:59;2.47;;;1.10;;
75739;SDS011;64357;51.344;6.550;2023-07-29T12:24:24;3.63;;;1.38;;
75739;SDS011;64357;51.344;6.550;2023-07-29T12:26:54;4.45;;;1.40;;
75739;SDS011;64357;51.344;6.550;2023-07-29T12:29:20;3.33;;;1.30;;
75739;SDS011;64357;51.344;6.550;2023-07-29T12:31:46;2.93;;;1.30;;
75739;SDS011;64357;51.344;6.550;2023-07-29T12:34:20;5.47;;;1.67;;
75739;SDS011;64357;51.344;6.550;2023-07-29T12:36:47;2.92;;;1.40;;
75739;SDS011;64357;51.344;6.550;2023-07-29T12:39:19;2.42;;;1.27;;
75739;SDS011;64357;51.344;6.550;2023-07-29T12:41:46;3.65;;;1.38;;
75739;SDS011;64357;51.344;6.550;2023-07-29T12:44:15;3.47;;;0.98;;
75739;SDS011;64357;51.344;6.550;2023-07-29T12:46:40;3.40;;;1.48;;
75739;SDS011;64357;51.344;6.550;2023-07-29T12:49:06;3.38;;;1.83;;
75739;SDS011;64357;51.344;6.550;2023-07-29T12:51:39;3.67;;;1.73;;
75739;SDS011;64357;51.344;6.550;2023-07-29T12:54:04;3.63;;;1.60;;
75739;SDS011;64357;51.344;6.550;2023-07-29T12:56:30;4.87;;;2.23;;
75739;SDS011;64357;51.344;6.550;2023-07-29T12:58:56;4.57;;;1.48;;
75739;SDS011;64357;51.344;6.550;2023-07-29T13:01:25;1.65;;;1.08;;
75739;SDS011;64357;51.344;6.550;2023-07-29T13:03:51;4.55;;;1.60;;
75739;SDS011;64357;51.344;6.550;2023-07-29T13:06:18;2.55;;;1.20;;
75739;SDS011;64357;51.344;6.550;2023-07-29T13:08:46;2.97;;;1.30;;
75739;SDS011;64357;51.344;6.550;2023-07-29T13:11:12;2.55;;;1.27;;
75739;SDS011;64357;51.344;6.550;2023-07-29T13:13:38;3.00;;;1.45;;
75739;SDS011;64357;51.344;6.550;2023-07-29T13:16:06;5.85;;;1.77;;
75739;SDS011;64357;51.344;6.550;2023-07-29T13:18:36;3.75;;;1.40;;
75739;SDS011;64357;51.344;6.550;2023-07-29T13:21:02;3.45;;;1.40;;
75739;SDS011;64357;51.344;6.550;2023-07-29T13:26:05;3.70;;;1.75;;
75739;SDS011;64357;51.344;6.550;2023-07-29T13:28:31;5.28;;;2.42;;
75739;SDS011;64357;51.344;6.550;2023-07-29T13:30:56;6.75;;;2.05;;
75739;SDS011;64357;51.344;6.550;2023-07-29T13:33:24;3.88;;;1.65;;
75739;SDS011;64357;51.344;6.550;2023-07-29T13:35:51;5.32;;;2.00;;
75739;SDS011;64357;51.344;6.550;2023-07-29T13:38:17;4.72;;;1.50;;
75739;SDS011;64357;51.344;6.550;2023-07-29T13:40:45;3.95;;;1.50;;
75739;SDS011;64357;51.344;6.550;2023-07-29T13:43:10;3.47;;;1.40;;
75739;SDS011;64357;51.344;6.550;2023-07-29T13:45:38;2.83;;;1.30;;
75739;SDS011;64357;51.344;6.550;2023-07-29T13:48:04;4.65;;;1.30;;
75739;SDS011;64357;51.344;6.550;2023-07-29T13:50:29;4.15;;;1.52;;
75739;SDS011;64357;51.344;6.550;2023-07-29T13:52:55;4.17;;;1.80;;
75739;SDS011;64357;51.344;6.550;2023-07-29T13:55:23;4.22;;;1.77;;
75739;SDS011;64357;51.344;6.550;2023-07-29T13:57:52;5.78;;;1.95;;
75739;SDS011;64357;51.344;6.550;2023-07-29T14:00:18;5.35;;;1.90;;
75739;SDS011;64357;51.344;6.550;2023-07-29T14:02:43;2.93;;;1.40;;
75739;SDS011;64357;51.344;6.550;2023-07-29T14:05:09;4.13;;;1.83;;
75739;SDS011;64357;51.344;6.550;2023-07-29T14:07:36;2.72;;;1.42;;
75739;SDS011;64357;51.344;6.550;2023-07-29T14:10:02;3.53;;;1.33;;
75739;SDS011;64357;51.344;6.550;2023-07-29T14:12:27;3.08;;;1.50;;
75739;SDS011;64357;51.344;6.550;2023-07-29T14:14:53;2.73;;;1.30;;
75739;SDS011;64357;51.344;6.550;2023-07-29T14:17:20;3.80;;;1.63;;
75739;SDS011;64357;51.344;6.550;2023-07-29T14:19:45;4.43;;;1.50;;
75739;SDS011;64357;51.344;6.550;2023-07-29T14:22:11;3.10;;;1.50;;
75739;SDS011;64357;51.344;6.550;2023-07-29T14:24:38;3.15;;;1.50;;
75739;SDS011;64357;51.344;6.550;2023-07-29T14:27:06;3.03;;;1.45;;
75739;SDS011;64357;51.344;6.550;2023-07-29T14:29:32;3.67;;;1.50;;
75739;SDS011;64357;51.344;6.550;2023-07-29T14:32:01;3.05;;;1.42;;
75739;SDS011;64357;51.344;6.550;2023-07-29T14:34:27;2.00;;;1.15;;
75739;SDS011;64357;51.344;6.550;2023-07-29T14:36:52;3.57;;;1.60;;
75739;SDS011;64357;51.344;6.550;2023-07-29T14:39:20;3.55;;;1.33;;
75739;SDS011;64357;51.344;6.550;2023-07-29T14:41:45;2.72;;;1.25;;
75739;SDS011;64357;51.344;6.550;2023-07-29T14:44:11;3.27;;;1.37;;
75739;SDS011;64357;51.344;6.550;2023-07-29T14:46:38;4.03;;;1.87;;
75739;SDS011;64357;51.344;6.550;2023-07-29T14:49:04;3.65;;;1.20;;
75739;SDS011;64357;51.344;6.550;2023-07-29T14:51:29;4.17;;;1.80;;
75739;SDS011;64357;51.344;6.550;2023-07-29T14:53:57;2.00;;;0.87;;
75739;SDS011;64357;51.344;6.550;2023-07-29T14:56:22;11.02;;;1.40;;
75739;SDS011;64357;51.344;6.550;2023-07-29T14:58:48;2.93;;;1.27;;
75739;SDS011;64357;51.344;6.550;2023-07-29T15:01:15;2.08;;;0.88;;
75739;SDS011;64357;51.344;6.550;2023-07-29T15:03:40;2.17;;;1.20;;
75739;SDS011;64357;51.344;6.550;2023-07-29T15:06:06;3.00;;;1.17;;
75739;SDS011;64357;51.344;6.550;2023-07-29T15:08:31;3.43;;;0.80;;
75739;SDS011;64357;51.344;6.550;2023-07-29T15:10:56;2.42;;;1.00;;